createdAt,value
2022-08-20T00:00:21.409Z,21.90
2022-08-20T00:02:50.255Z,21.99
2022-08-20T00:05:03.429Z,22.02
2022-08-20T00:07:16.709Z,21.98
2022-08-20T00:09:30.033Z,21.92
2022-08-20T00:11:43.212Z,21.83
2022-08-20T00:13:58.703Z,21.82
2022-08-20T00:16:12.948Z,21.83
2022-08-20T00:18:26.859Z,21.87
2022-08-20T00:20:43.009Z,21.97
2022-08-20T00:22:56.274Z,21.98
2022-08-20T00:25:11.008Z,21.87
2022-08-20T00:27:24.038Z,21.75
2022-08-20T00:29:37.297Z,21.66
2022-08-20T00:31:50.361Z,21.60
2022-08-20T00:34:03.490Z,21.55
2022-08-20T00:36:18.613Z,21.50
2022-08-20T00:38:32.782Z,21.37
2022-08-20T00:40:48.949Z,21.25
2022-08-20T00:43:05.091Z,21.16
2022-08-20T00:45:18.510Z,21.08
2022-08-20T00:47:31.552Z,20.99
2022-08-20T00:49:46.732Z,20.95
2022-08-20T00:52:03.872Z,20.92
2022-08-20T00:54:22.664Z,20.86
2022-08-20T00:56:37.388Z,20.88
2022-08-20T00:58:52.132Z,20.90
2022-08-20T01:01:05.771Z,20.87
2022-08-20T01:03:21.552Z,20.74
2022-08-20T01:05:36.044Z,20.61
2022-08-20T01:07:49.795Z,20.49
2022-08-20T01:10:05.687Z,20.43
2022-08-20T01:12:22.083Z,20.40
2022-08-20T01:14:40.423Z,20.38
2022-08-20T01:16:56.316Z,20.41
2022-08-20T01:19:30.024Z,20.44
2022-08-20T01:21:45.840Z,20.42
2022-08-20T01:24:11.317Z,20.43
2022-08-20T01:26:28.893Z,20.40
2022-08-20T01:28:49.290Z,20.34
2022-08-20T01:31:02.867Z,20.30
2022-08-20T01:33:16.129Z,20.29
2022-08-20T01:35:29.571Z,20.27
2022-08-20T01:37:42.602Z,20.20
2022-08-20T01:39:55.789Z,20.11
2022-08-20T01:42:15.976Z,19.97
2022-08-20T01:44:29.443Z,19.86
2022-08-20T01:46:46.243Z,19.83
2022-08-20T01:49:00.668Z,19.82
2022-08-20T01:51:18.349Z,19.84
2022-08-20T01:53:36.117Z,19.85
2022-08-20T01:55:49.262Z,19.87
2022-08-20T01:58:03.676Z,19.87
2022-08-20T02:00:22.120Z,19.87
2022-08-20T02:02:35.129Z,19.86
2022-08-20T02:04:48.546Z,19.86
2022-08-20T02:07:04.607Z,19.85
2022-08-20T02:09:17.605Z,19.81
2022-08-20T02:11:32.490Z,19.81
2022-08-20T02:13:45.546Z,19.76
2022-08-20T02:15:58.587Z,19.67
2022-08-20T02:18:14.824Z,19.56
2022-08-20T02:20:35.484Z,19.46
2022-08-20T02:22:53.001Z,19.36
2022-08-20T02:25:09.944Z,19.26
2022-08-20T02:27:24.816Z,19.16
2022-08-20T02:29:38.170Z,19.10
2022-08-20T02:32:31.188Z,19.10
2022-08-20T02:34:25.012Z,19.09
2022-08-20T02:36:38.448Z,19.07
2022-08-20T02:38:51.937Z,19.10
2022-08-20T02:41:05.350Z,19.08
2022-08-20T02:43:20.014Z,19.05
2022-08-20T02:45:38.415Z,19.06
2022-08-20T02:47:51.929Z,19.08
2022-08-20T02:50:07.776Z,19.07
2022-08-20T02:52:21.308Z,19.08
2022-08-20T02:54:34.595Z,19.09
2022-08-20T02:56:48.685Z,19.12
2022-08-20T02:59:01.830Z,19.12
2022-08-20T03:01:17.608Z,19.11
2022-08-20T03:03:30.850Z,19.11
2022-08-20T03:05:45.484Z,19.11
2022-08-20T03:07:59.524Z,19.13
2022-08-20T03:10:14.277Z,19.13
2022-08-20T03:12:27.315Z,19.11
2022-08-20T03:14:40.933Z,19.10
2022-08-20T03:16:54.327Z,19.10
2022-08-20T03:19:07.435Z,19.11
2022-08-20T03:21:20.555Z,19.11
2022-08-20T03:23:33.954Z,19.12
2022-08-20T03:25:48.850Z,19.14
2022-08-20T03:28:02.455Z,19.14
2022-08-20T03:30:18.516Z,19.14
2022-08-20T03:32:31.633Z,19.14
2022-08-20T03:34:44.791Z,19.12
2022-08-20T03:36:57.833Z,19.12
2022-08-20T03:39:14.468Z,19.13
2022-08-20T03:41:27.862Z,19.13
2022-08-20T03:43:42.242Z,19.13
2022-08-20T03:45:55.293Z,19.12
2022-08-20T03:48:09.643Z,19.10
2022-08-20T03:50:26.037Z,19.12
2022-08-20T03:52:39.471Z,19.13
2022-08-20T03:54:52.459Z,19.13
2022-08-20T03:57:12.451Z,19.13
2022-08-20T03:59:26.173Z,19.12
2022-08-20T04:01:44.782Z,19.12
2022-08-20T04:03:59.832Z,19.11
2022-08-20T04:06:13.252Z,19.09
2022-08-20T04:08:29.314Z,19.08
2022-08-20T04:10:43.071Z,19.07
2022-08-20T04:12:56.222Z,19.08
2022-08-20T04:15:11.884Z,19.08
2022-08-20T04:17:26.587Z,19.09
2022-08-20T04:19:40.067Z,19.09
2022-08-20T04:21:53.398Z,19.09
2022-08-20T04:24:08.344Z,19.11
2022-08-20T04:26:37.492Z,19.12
2022-08-20T04:28:55.760Z,19.12
2022-08-20T04:31:09.080Z,19.09
2022-08-20T04:33:22.720Z,19.03
2022-08-20T04:35:47.573Z,18.99
2022-08-20T04:38:07.788Z,18.97
2022-08-20T04:40:38.984Z,18.93
2022-08-20T04:42:54.006Z,18.92
2022-08-20T04:45:07.589Z,18.89
2022-08-20T04:47:34.807Z,18.88
2022-08-20T04:49:48.409Z,18.86
2022-08-20T04:52:01.845Z,18.87
2022-08-20T04:54:15.537Z,18.87
2022-08-20T04:56:30.432Z,18.87
2022-08-20T04:58:52.446Z,18.86
2022-08-20T05:01:08.952Z,18.85
2022-08-20T05:03:22.882Z,18.85
2022-08-20T05:05:36.543Z,18.85
2022-08-20T05:07:53.448Z,18.84
2022-08-20T05:10:10.124Z,18.81
2022-08-20T05:12:23.412Z,18.79
2022-08-20T05:14:36.796Z,18.78
2022-08-20T05:16:52.110Z,18.78
2022-08-20T05:19:05.481Z,18.78
2022-08-20T05:21:18.797Z,18.72
2022-08-20T05:23:32.746Z,18.68
2022-08-20T05:25:47.693Z,18.66
2022-08-20T05:28:04.478Z,18.65
2022-08-20T05:30:18.635Z,18.63
2022-08-20T05:32:33.134Z,18.63
2022-08-20T05:34:57.857Z,18.62
2022-08-20T05:37:13.433Z,18.60
2022-08-20T05:39:28.500Z,18.59
2022-08-20T05:41:42.702Z,18.59
2022-08-20T05:43:55.733Z,18.58
2022-08-20T05:46:08.871Z,18.58
2022-08-20T05:48:23.525Z,18.58
2022-08-20T05:50:36.904Z,18.57
2022-08-20T05:52:50.272Z,18.57
2022-08-20T05:55:03.334Z,18.57
2022-08-20T05:57:16.383Z,18.57
2022-08-20T05:59:30.038Z,18.56
2022-08-20T06:01:44.511Z,18.53
2022-08-20T06:04:13.865Z,18.53
2022-08-20T06:06:45.059Z,18.53
2022-08-20T06:08:59.545Z,18.53
2022-08-20T06:11:12.602Z,18.52
2022-08-20T06:13:25.896Z,18.48
2022-08-20T06:15:39.480Z,18.49
2022-08-20T06:17:58.187Z,18.48
2022-08-20T06:20:13.549Z,18.47
2022-08-20T06:22:27.318Z,18.45
2022-08-20T06:24:40.550Z,18.44
2022-08-20T06:26:58.183Z,18.43
2022-08-20T06:29:11.852Z,18.43
2022-08-20T06:31:25.034Z,18.41
2022-08-20T06:33:38.144Z,18.39
2022-08-20T06:35:51.162Z,18.38
2022-08-20T06:38:07.072Z,18.38
2022-08-20T06:40:22.651Z,18.38
2022-08-20T06:42:35.790Z,18.38
2022-08-20T06:44:51.971Z,18.37
2022-08-20T06:47:09.265Z,18.37
2022-08-20T06:49:22.707Z,18.33
2022-08-20T06:51:35.788Z,18.30
2022-08-20T06:53:48.734Z,18.29
2022-08-20T06:56:02.161Z,18.27
2022-08-20T06:58:37.557Z,18.25
2022-08-20T07:00:50.861Z,18.23
2022-08-20T07:03:04.503Z,18.22
2022-08-20T07:05:17.744Z,18.21
2022-08-20T07:07:30.726Z,18.19
2022-08-20T07:09:43.848Z,18.20
2022-08-20T07:11:57.886Z,18.20
2022-08-20T07:14:10.874Z,18.19
2022-08-20T07:16:23.807Z,18.19
2022-08-20T07:18:37.574Z,18.19
2022-08-20T07:20:50.615Z,18.17
2022-08-20T07:23:04.069Z,18.15
2022-08-20T07:25:20.205Z,18.16
2022-08-20T07:27:33.322Z,18.16
2022-08-20T07:30:02.814Z,18.17
2022-08-20T07:32:32.141Z,18.15
2022-08-20T07:34:50.070Z,18.13
2022-08-20T07:37:04.966Z,18.12
2022-08-20T07:39:17.944Z,18.10
2022-08-20T07:41:34.091Z,18.11
2022-08-20T07:43:48.321Z,18.12
2022-08-20T07:46:04.014Z,18.13
2022-08-20T07:48:31.472Z,18.14
2022-08-20T07:50:45.828Z,18.12
2022-08-20T07:53:01.797Z,18.13
2022-08-20T07:55:17.619Z,18.14
2022-08-20T07:57:30.672Z,18.15
2022-08-20T07:59:44.135Z,18.11
2022-08-20T08:01:57.838Z,18.08
2022-08-20T08:04:10.972Z,18.06
2022-08-20T08:06:29.469Z,18.03
2022-08-20T08:08:45.130Z,18.03
2022-08-20T08:11:01.688Z,18.02
2022-08-20T08:13:17.043Z,18.03
2022-08-20T08:15:32.991Z,18.03
2022-08-20T08:17:46.974Z,18.03
2022-08-20T08:20:00.543Z,18.02
2022-08-20T08:22:17.472Z,18.03
2022-08-20T08:24:30.427Z,18.04
2022-08-20T08:26:44.061Z,18.05
2022-08-20T08:28:56.997Z,18.07
2022-08-20T08:31:10.147Z,18.07
2022-08-20T08:33:34.567Z,18.05
2022-08-20T08:35:47.828Z,18.05
2022-08-20T08:38:03.686Z,18.06
2022-08-20T08:40:17.707Z,18.05
2022-08-20T08:42:42.990Z,18.03
2022-08-20T08:44:57.145Z,18.02
2022-08-20T08:47:19.520Z,18.02
2022-08-20T08:49:38.213Z,18.01
2022-08-20T08:51:57.253Z,17.99
2022-08-20T08:54:11.558Z,17.98
2022-08-20T08:56:26.851Z,17.97
2022-08-20T08:58:39.722Z,17.96
2022-08-20T09:00:56.229Z,17.94
2022-08-20T09:03:14.224Z,17.92
2022-08-20T09:05:32.930Z,17.91
2022-08-20T09:07:48.688Z,17.90
2022-08-20T09:10:02.038Z,17.88
2022-08-20T09:12:19.331Z,17.88
2022-08-20T09:14:32.353Z,17.88
2022-08-20T09:16:52.188Z,17.87
2022-08-20T09:19:05.661Z,17.85
2022-08-20T09:21:18.955Z,17.84
2022-08-20T09:23:31.987Z,17.83
2022-08-20T09:25:45.077Z,17.84
2022-08-20T09:27:58.056Z,17.86
2022-08-20T09:30:12.368Z,17.85
2022-08-20T09:32:27.828Z,17.82
2022-08-20T09:34:43.966Z,17.80
2022-08-20T09:36:56.978Z,17.79
2022-08-20T09:39:11.135Z,17.80
2022-08-20T09:41:24.048Z,17.80
2022-08-20T09:43:37.246Z,17.78
2022-08-20T09:45:50.123Z,17.78
2022-08-20T09:48:03.113Z,17.77
2022-08-20T09:50:16.825Z,17.78
2022-08-20T09:52:32.081Z,17.79
2022-08-20T09:54:46.584Z,17.78
2022-08-20T09:57:00.749Z,17.78
2022-08-20T09:59:13.861Z,17.78
2022-08-20T10:01:27.949Z,17.78
2022-08-20T10:03:41.737Z,17.78
2022-08-20T10:05:55.021Z,17.78
2022-08-20T10:08:11.596Z,17.76
2022-08-20T10:10:24.591Z,17.74
2022-08-20T10:12:37.644Z,17.71
2022-08-20T10:14:50.576Z,17.70
2022-08-20T10:17:05.587Z,17.70
2022-08-20T10:19:18.591Z,17.70
2022-08-20T10:21:33.379Z,17.71
2022-08-20T10:23:50.003Z,17.69
2022-08-20T10:26:03.076Z,17.70
2022-08-20T10:28:16.090Z,17.71
2022-08-20T10:30:29.485Z,17.70
2022-08-20T10:32:42.489Z,17.69
2022-08-20T10:34:55.439Z,17.69
2022-08-20T10:37:08.410Z,17.68
2022-08-20T10:39:21.880Z,17.67
2022-08-20T10:41:38.752Z,17.67
2022-08-20T10:43:52.416Z,17.65
2022-08-20T10:46:05.553Z,17.65
2022-08-20T10:48:21.563Z,17.66
2022-08-20T10:50:34.966Z,17.68
2022-08-20T10:52:48.257Z,17.66
2022-08-20T10:55:02.309Z,17.64
2022-08-20T10:57:16.726Z,17.64
2022-08-20T10:59:29.683Z,17.63
2022-08-20T11:01:42.774Z,17.62
2022-08-20T11:03:56.283Z,17.62
2022-08-20T11:06:09.571Z,17.64
2022-08-20T11:08:34.395Z,17.65
2022-08-20T11:10:49.420Z,17.67
2022-08-20T11:13:02.501Z,17.68
2022-08-20T11:15:16.327Z,17.68
2022-08-20T11:17:32.179Z,17.69
2022-08-20T11:19:50.524Z,17.70
2022-08-20T11:22:03.443Z,17.70
2022-08-20T11:24:16.490Z,17.72
2022-08-20T11:26:30.536Z,17.72
2022-08-20T11:28:42.721Z,17.72
2022-08-20T11:30:56.118Z,17.72
2022-08-20T11:33:09.244Z,17.71
2022-08-20T11:35:42.162Z,17.72
2022-08-20T11:37:56.433Z,17.73
2022-08-20T11:40:13.075Z,17.74
2022-08-20T11:42:26.124Z,17.73
2022-08-20T11:44:39.165Z,17.72
2022-08-20T11:46:52.144Z,17.72
2022-08-20T11:49:05.178Z,17.72
2022-08-20T11:51:18.340Z,17.72
2022-08-20T11:53:32.008Z,17.73
2022-08-20T11:55:46.659Z,17.71
2022-08-20T11:58:01.125Z,17.70
2022-08-20T12:00:17.444Z,17.70
2022-08-20T12:02:31.588Z,17.70
2022-08-20T12:04:44.555Z,17.69
2022-08-20T12:06:57.508Z,17.69
2022-08-20T12:09:14.172Z,17.69
2022-08-20T12:11:27.282Z,17.70
2022-08-20T12:13:47.870Z,17.70
2022-08-20T12:16:02.499Z,17.68
2022-08-20T12:18:15.870Z,17.66
2022-08-20T12:20:30.468Z,17.67
2022-08-20T12:22:43.745Z,17.65
2022-08-20T12:24:57.378Z,17.63
2022-08-20T12:27:18.398Z,17.62
2022-08-20T12:29:31.256Z,17.61
2022-08-20T12:31:44.246Z,17.61
2022-08-20T12:33:57.452Z,17.62
2022-08-20T12:36:10.970Z,17.62
2022-08-20T12:38:24.024Z,17.63
2022-08-20T12:40:37.620Z,17.63
2022-08-20T12:42:50.644Z,17.64
2022-08-20T12:45:04.251Z,17.64
2022-08-20T12:47:19.230Z,17.63
2022-08-20T12:49:32.255Z,17.63
2022-08-20T12:51:45.358Z,17.61
2022-08-20T12:53:58.249Z,17.59
2022-08-20T12:56:12.546Z,17.58
2022-08-20T12:58:28.320Z,17.57
2022-08-20T13:00:47.472Z,17.55
2022-08-20T13:03:06.120Z,17.54
2022-08-20T13:05:19.934Z,17.54
2022-08-20T13:07:33.985Z,17.52
2022-08-20T13:09:47.733Z,17.51
2022-08-20T13:12:00.765Z,17.52
2022-08-20T13:14:15.765Z,17.53
2022-08-20T13:16:28.729Z,17.53
2022-08-20T13:18:41.710Z,17.52
2022-08-20T13:20:54.625Z,17.50
2022-08-20T13:23:08.445Z,17.49
2022-08-20T13:25:21.570Z,17.50
2022-08-20T13:27:34.586Z,17.51
2022-08-20T13:29:55.219Z,17.49
2022-08-20T13:32:11.804Z,17.49
2022-08-20T13:34:24.740Z,17.49
2022-08-20T13:36:38.031Z,17.50
2022-08-20T13:38:50.980Z,17.50
2022-08-20T13:41:04.121Z,17.51
2022-08-20T13:43:17.504Z,17.49
2022-08-20T13:45:30.903Z,17.47
2022-08-20T13:47:45.347Z,17.45
2022-08-20T13:50:03.371Z,17.45
2022-08-20T13:52:17.031Z,17.45
2022-08-20T13:54:30.474Z,17.45
2022-08-20T13:56:43.551Z,17.46
2022-08-20T13:58:56.519Z,17.47
2022-08-20T14:01:09.824Z,17.50
2022-08-20T14:03:25.464Z,17.51
2022-08-20T14:05:40.071Z,17.53
2022-08-20T14:07:53.898Z,17.58
2022-08-20T14:10:09.355Z,17.60
2022-08-20T14:12:23.779Z,17.59
2022-08-20T14:14:36.853Z,17.59
2022-08-20T14:16:49.843Z,17.59
2022-08-20T14:19:02.792Z,17.61
2022-08-20T14:21:15.759Z,17.62
2022-08-20T14:23:29.006Z,17.63
2022-08-20T14:25:42.133Z,17.64
2022-08-20T14:27:55.424Z,17.65
2022-08-20T14:30:11.189Z,17.68
2022-08-20T14:32:24.134Z,17.70
2022-08-20T14:34:37.365Z,17.74
2022-08-20T14:36:51.424Z,17.77
2022-08-20T14:39:04.469Z,17.81
2022-08-20T14:41:17.448Z,17.86
2022-08-20T14:43:30.586Z,17.89
2022-08-20T14:45:43.871Z,17.92
2022-08-20T14:47:58.540Z,17.94
2022-08-20T14:50:14.229Z,17.98
2022-08-20T14:52:28.453Z,18.01
2022-08-20T14:54:41.974Z,17.99
2022-08-20T14:56:55.037Z,18.02
2022-08-20T14:59:08.157Z,18.03
2022-08-20T15:01:21.238Z,18.06
2022-08-20T15:03:34.356Z,18.08
2022-08-20T15:05:47.568Z,18.11
2022-08-20T15:08:03.409Z,18.12
2022-08-20T15:10:21.065Z,18.15
2022-08-20T15:12:36.354Z,18.13
2022-08-20T15:14:49.395Z,18.12
2022-08-20T15:17:03.357Z,18.10
2022-08-20T15:19:16.382Z,18.13
2022-08-20T15:21:29.400Z,18.17
2022-08-20T15:23:58.015Z,18.21
2022-08-20T15:26:11.616Z,18.25
2022-08-20T15:28:24.533Z,18.29
2022-08-20T15:30:37.827Z,18.33
2022-08-20T15:32:54.804Z,18.37
2022-08-20T15:35:11.699Z,18.39
2022-08-20T15:37:27.934Z,18.39
2022-08-20T15:39:42.112Z,18.40
2022-08-20T15:41:55.209Z,18.44
2022-08-20T15:44:09.595Z,18.51
2022-08-20T15:46:22.622Z,18.51
2022-08-20T15:48:41.542Z,18.49
2022-08-20T15:51:15.559Z,18.46
2022-08-20T15:53:34.113Z,18.42
2022-08-20T15:55:57.134Z,18.39
2022-08-20T15:58:18.682Z,18.38
2022-08-20T16:00:36.269Z,18.39
2022-08-20T16:03:15.618Z,18.38
2022-08-20T16:05:37.282Z,18.43
2022-08-20T16:08:02.146Z,18.46
2022-08-20T16:10:20.939Z,18.53
2022-08-20T16:12:39.394Z,18.57
2022-08-20T16:14:56.912Z,18.61
2022-08-20T16:17:12.960Z,18.63
2022-08-20T16:19:30.441Z,18.67
2022-08-20T16:21:47.134Z,18.74
2022-08-20T16:24:00.452Z,18.76
2022-08-20T16:26:26.136Z,18.78
2022-08-20T16:28:45.969Z,18.80
2022-08-20T16:31:07.713Z,18.83
2022-08-20T16:33:29.423Z,18.88
2022-08-20T16:35:48.664Z,18.90
2022-08-20T16:38:07.008Z,18.90
2022-08-20T16:40:28.106Z,18.87
2022-08-20T16:42:45.135Z,18.85
2022-08-20T16:45:03.294Z,18.87
2022-08-20T16:47:22.054Z,18.95
2022-08-20T16:49:40.548Z,19.01
2022-08-20T16:51:56.263Z,19.03
2022-08-20T16:54:09.558Z,19.07
2022-08-20T16:56:36.775Z,19.09
2022-08-20T16:58:53.047Z,19.17
2022-08-20T17:01:16.449Z,19.26
2022-08-20T17:03:39.948Z,19.37
2022-08-20T17:05:55.271Z,19.47
2022-08-20T17:08:12.303Z,19.54
2022-08-20T17:10:28.595Z,19.56
2022-08-20T17:12:41.879Z,19.58
2022-08-20T17:14:57.393Z,19.59
2022-08-20T17:17:21.273Z,19.63
2022-08-20T17:19:35.705Z,19.60
2022-08-20T17:21:49.765Z,19.65
2022-08-20T17:24:05.884Z,19.73
2022-08-20T17:26:27.227Z,19.76
2022-08-20T17:28:41.221Z,19.81
2022-08-20T17:30:54.697Z,19.83
2022-08-20T17:33:10.487Z,19.84
2022-08-20T17:35:35.642Z,19.93
2022-08-20T17:37:56.754Z,20.04
2022-08-20T17:40:23.676Z,20.06
2022-08-20T17:42:37.052Z,20.13
2022-08-20T17:44:55.996Z,20.17
2022-08-20T17:47:15.972Z,20.11
2022-08-20T17:49:57.438Z,20.11
2022-08-20T17:52:21.252Z,20.09
2022-08-20T17:54:37.960Z,20.12
2022-08-20T17:56:55.707Z,20.11
2022-08-20T17:59:17.858Z,20.11
2022-08-20T18:01:45.773Z,20.15
2022-08-20T18:03:59.374Z,20.18
2022-08-20T18:06:17.804Z,20.24
2022-08-20T18:08:45.110Z,20.39
2022-08-20T18:11:04.730Z,20.61
2022-08-20T18:13:22.107Z,20.76
2022-08-20T18:15:40.041Z,20.79
2022-08-20T18:18:20.280Z,20.78
2022-08-20T18:20:52.679Z,20.71
2022-08-20T18:23:10.488Z,20.72
2022-08-20T18:25:35.691Z,20.69
2022-08-20T18:27:50.960Z,20.67
2022-08-20T18:30:17.167Z,20.67
2022-08-20T18:32:36.590Z,20.70
2022-08-20T18:34:49.971Z,20.79
2022-08-20T18:37:04.444Z,20.84
2022-08-20T18:39:31.576Z,20.87
2022-08-20T18:41:58.629Z,20.86
2022-08-20T18:44:15.460Z,20.82
2022-08-20T18:46:29.386Z,20.85
2022-08-20T18:48:53.453Z,20.92
2022-08-20T18:51:12.636Z,20.91
2022-08-20T18:53:33.109Z,20.96
2022-08-20T18:55:49.481Z,20.96
2022-08-20T18:58:05.258Z,20.98
2022-08-20T19:00:21.402Z,21.02
2022-08-20T19:02:37.795Z,21.02
2022-08-20T19:04:59.798Z,21.01
2022-08-20T19:07:18.618Z,21.03
2022-08-20T19:09:50.477Z,21.04
2022-08-20T19:12:19.948Z,21.07
2022-08-20T19:15:07.568Z,21.10
2022-08-20T19:17:27.553Z,21.16
2022-08-20T19:19:45.502Z,21.27
2022-08-20T19:21:59.098Z,21.27
2022-08-20T19:24:17.066Z,21.30
2022-08-20T19:26:34.982Z,21.27
2022-08-20T19:28:50.983Z,21.23
2022-08-20T19:31:15.969Z,21.18
2022-08-20T19:33:44.429Z,21.16
2022-08-20T19:35:57.675Z,21.12
2022-08-20T19:38:19.461Z,21.07
2022-08-20T19:40:38.865Z,21.11
2022-08-20T19:42:52.432Z,21.18
2022-08-20T19:45:10.948Z,21.21
2022-08-20T19:47:29.490Z,21.25
2022-08-20T19:49:58.331Z,21.28
2022-08-20T19:52:23.333Z,21.34
2022-08-20T19:54:36.608Z,21.41
2022-08-20T19:56:50.360Z,21.46
2022-08-20T19:59:09.566Z,21.44
2022-08-20T20:01:25.007Z,21.41
2022-08-20T20:03:40.997Z,21.37
2022-08-20T20:06:02.104Z,21.45
2022-08-20T20:08:17.565Z,21.58
2022-08-20T20:10:35.879Z,21.68
2022-08-20T20:12:50.209Z,21.79
2022-08-20T20:15:03.497Z,21.78
2022-08-20T20:17:23.114Z,21.71
2022-08-20T20:19:47.844Z,21.64
2022-08-20T20:22:19.142Z,21.56
2022-08-20T20:24:45.262Z,21.55
2022-08-20T20:26:58.800Z,21.53
2022-08-20T20:29:16.492Z,21.59
2022-08-20T20:31:31.875Z,21.63
2022-08-20T20:33:46.955Z,21.74
2022-08-20T20:36:11.946Z,21.81
2022-08-20T20:38:33.308Z,21.88
2022-08-20T20:40:54.555Z,21.92
2022-08-20T20:43:11.258Z,22.00
2022-08-20T20:45:30.630Z,22.10
2022-08-20T20:47:44.137Z,22.16
2022-08-20T20:49:59.561Z,22.10
2022-08-20T20:52:25.091Z,22.04
2022-08-20T20:54:46.032Z,22.12
2022-08-20T20:57:07.384Z,22.25
2022-08-20T20:59:20.619Z,22.33
2022-08-20T21:01:49.026Z,22.30
2022-08-20T21:04:03.390Z,22.29
2022-08-20T21:06:16.417Z,22.32
2022-08-20T21:08:29.600Z,22.36
2022-08-20T21:10:44.909Z,22.32
2022-08-20T21:12:58.771Z,22.29
2022-08-20T21:15:13.659Z,22.34
2022-08-20T21:17:28.077Z,22.38
2022-08-20T21:19:45.031Z,22.43
2022-08-20T21:21:59.059Z,22.43
2022-08-20T21:24:14.181Z,22.42
2022-08-20T21:26:27.613Z,22.42
2022-08-20T21:28:40.994Z,22.37
2022-08-20T21:30:58.536Z,22.32
2022-08-20T21:33:11.816Z,22.48
2022-08-20T21:35:25.964Z,22.69
2022-08-20T21:37:39.422Z,22.71
2022-08-20T21:39:52.668Z,22.56
2022-08-20T21:42:28.568Z,22.53
2022-08-20T21:44:49.458Z,22.51
2022-08-20T21:47:03.929Z,22.45
2022-08-20T21:49:17.555Z,22.41
2022-08-20T21:51:30.891Z,22.35
2022-08-20T21:53:46.222Z,22.29
2022-08-20T21:55:59.519Z,22.15
2022-08-20T21:58:13.158Z,21.99
2022-08-20T22:00:50.633Z,21.90
2022-08-20T22:03:03.762Z,21.89
2022-08-20T22:05:17.137Z,21.81
2022-08-20T22:07:30.412Z,21.75
2022-08-20T22:09:43.841Z,21.66
2022-08-20T22:12:00.774Z,21.59
2022-08-20T22:14:17.521Z,21.56
2022-08-20T22:16:30.991Z,21.55
2022-08-20T22:18:45.150Z,21.50
2022-08-20T22:20:58.715Z,21.47
2022-08-20T22:23:12.290Z,21.41
2022-08-20T22:25:25.654Z,21.34
2022-08-20T22:27:38.702Z,21.24
2022-08-20T22:29:52.007Z,21.21
2022-08-20T22:32:10.017Z,21.21
2022-08-20T22:34:25.929Z,21.24
2022-08-20T22:36:39.486Z,21.19
2022-08-20T22:38:54.860Z,21.13
2022-08-20T22:41:09.916Z,21.11
2022-08-20T22:43:23.387Z,21.09
2022-08-20T22:45:36.863Z,21.08
2022-08-20T22:47:50.166Z,21.12
2022-08-20T22:50:04.000Z,21.14
2022-08-20T22:52:17.786Z,21.15
2022-08-20T22:54:31.357Z,21.18
2022-08-20T22:56:47.619Z,21.21
2022-08-20T22:59:01.161Z,21.21
2022-08-20T23:01:15.047Z,21.16
2022-08-20T23:03:39.198Z,21.12
2022-08-20T23:05:53.630Z,21.08
2022-08-20T23:08:08.461Z,21.06
2022-08-20T23:10:21.724Z,21.04
2022-08-20T23:12:34.955Z,21.04
2022-08-20T23:14:48.037Z,21.06
2022-08-20T23:17:13.243Z,21.08
2022-08-20T23:19:27.885Z,21.11
2022-08-20T23:21:41.067Z,21.12
2022-08-20T23:23:54.259Z,21.11
2022-08-20T23:26:07.843Z,21.08
2022-08-20T23:28:23.582Z,21.07
2022-08-20T23:30:36.609Z,21.01
2022-08-20T23:32:49.667Z,20.94
2022-08-20T23:35:02.894Z,20.92
2022-08-20T23:37:16.704Z,20.93
2022-08-20T23:39:30.721Z,20.94
2022-08-20T23:41:47.550Z,20.94
2022-08-20T23:44:01.054Z,20.98
2022-08-20T23:46:15.484Z,20.99
2022-08-20T23:48:28.599Z,20.95
2022-08-20T23:50:42.253Z,20.97
2022-08-20T23:52:55.358Z,20.99
2022-08-20T23:55:08.978Z,21.02
2022-08-20T23:57:22.019Z,21.04
2022-08-20T23:59:36.138Z,21.07
